Time;durP1;ratioP1;P1;durP2;ratioP2;P2;SDS_P1;SDS_P2;PMS_P1;PMS_P2;Temp;Humidity;BMP_temperature;BMP_pressure;BME280_temperature;BME280_humidity;BME280_pressure;Samples;Min_cycle;Max_cycle;Signal;HPM_P1;HPM_P2
2021/10/04 00:01:28;;;;;;;12.55;4.47;;;11.10;99.90;;;;;;5076961;28;20465;-81
2021/10/04 00:03:53;;;;;;;13.40;4.75;;;11.10;99.90;;;;;;5059179;28;20103;-82
2021/10/04 00:06:19;;;;;;;11.35;5.18;;;11.30;99.90;;;;;;5077140;28;20098;-82
2021/10/04 00:08:44;;;;;;;9.70;4.55;;;11.20;99.90;;;;;;5056756;28;20070;-82
2021/10/04 00:11:10;;;;;;;10.43;4.18;;;11.20;99.90;;;;;;5060008;28;20051;-81
2021/10/04 00:13:36;;;;;;;12.15;4.18;;;11.40;99.90;;;;;;5062838;28;20110;-82
2021/10/04 00:16:02;;;;;;;9.50;4.15;;;11.10;99.90;;;;;;5098243;28;20471;-81
2021/10/04 00:18:28;;;;;;;7.93;3.92;;;11.10;99.90;;;;;;5069325;28;20069;-82
2021/10/04 00:20:54;;;;;;;11.85;3.63;;;11.20;99.90;;;;;;5076247;28;20351;-82
2021/10/04 00:23:19;;;;;;;11.52;4.18;;;11.10;99.90;;;;;;5061451;28;20425;-82
2021/10/04 00:25:45;;;;;;;8.98;3.88;;;11.10;99.90;;;;;;5084097;28;20042;-82
2021/10/04 00:28:11;;;;;;;10.40;4.00;;;11.10;99.90;;;;;;5057761;28;20109;-81
2021/10/04 00:30:37;;;;;;;10.13;3.67;;;11.40;99.90;;;;;;5060551;28;20055;-82
2021/10/04 00:33:03;;;;;;;11.10;3.67;;;11.10;99.90;;;;;;5060469;28;20090;-82
2021/10/04 00:35:29;;;;;;;10.13;3.70;;;11.10;99.90;;;;;;5061881;28;20036;-81
2021/10/04 00:37:55;;;;;;;8.60;3.70;;;11.20;99.90;;;;;;5066527;28;20043;-81
2021/10/04 00:40:25;;;;;;;10.18;3.40;;;11.20;99.90;;;;;;5083471;28;20056;-82
2021/10/04 00:42:52;;;;;;;13.25;3.55;;;11.40;99.90;;;;;;5084608;28;20071;-81
2021/10/04 00:45:18;;;;;;;11.27;3.78;;;11.40;99.90;;;;;;5073502;28;20459;-82
2021/10/04 00:47:44;;;;;;;14.50;3.58;;;11.10;99.90;;;;;;5074833;28;20120;-82
2021/10/04 00:50:11;;;;;;;13.70;3.83;;;11.10;99.90;;;;;;5084336;28;20028;-82
2021/10/04 00:52:37;;;;;;;9.85;3.60;;;11.10;99.90;;;;;;5099263;28;20036;-81
2021/10/04 00:55:04;;;;;;;16.33;3.10;;;11.20;99.90;;;;;;5084291;28;20161;-81
2021/10/04 00:57:31;;;;;;;12.80;3.70;;;11.00;99.90;;;;;;5077062;28;20070;-82
2021/10/04 00:59:57;;;;;;;9.23;3.30;;;11.10;99.90;;;;;;5076802;28;20040;-81
2021/10/04 01:02:23;;;;;;;6.00;2.95;;;11.60;99.90;;;;;;5080555;28;20168;-82
2021/10/04 01:04:48;;;;;;;10.50;3.60;;;11.10;99.90;;;;;;5075023;28;20120;-80
2021/10/04 01:07:15;;;;;;;8.13;3.20;;;11.00;99.90;;;;;;5079395;28;20078;-80
2021/10/04 01:09:41;;;;;;;8.45;3.13;;;11.10;99.90;;;;;;5083071;28;20482;-81
2021/10/04 01:12:08;;;;;;;8.00;2.95;;;11.70;99.90;;;;;;5079995;28;20047;-81
2021/10/04 01:14:34;;;;;;;8.70;3.08;;;11.10;99.90;;;;;;5078651;28;20447;-81
2021/10/04 01:17:00;;;;;;;10.85;3.38;;;11.50;99.90;;;;;;5086962;28;20122;-81
2021/10/04 01:19:26;;;;;;;12.38;3.10;;;11.50;99.90;;;;;;5081624;28;20122;-81
2021/10/04 01:21:52;;;;;;;13.05;3.08;;;11.10;99.90;;;;;;5092913;28;20139;-81
2021/10/04 01:24:18;;;;;;;9.93;3.83;;;11.30;99.90;;;;;;5065142;28;20546;-81
2021/10/04 01:26:45;;;;;;;11.05;3.35;;;11.00;99.90;;;;;;5080737;28;20034;-81
2021/10/04 01:29:11;;;;;;;6.00;2.80;;;11.00;99.90;;;;;;5066724;28;20032;-82
2021/10/04 01:31:37;;;;;;;9.63;3.60;;;11.10;99.90;;;;;;5082729;28;20058;-81
2021/10/04 01:34:04;;;;;;;10.35;3.03;;;11.10;99.90;;;;;;5080437;28;20487;-81
2021/10/04 01:36:31;;;;;;;7.78;2.80;;;11.30;99.90;;;;;;5072514;28;20036;-81
2021/10/04 01:38:58;;;;;;;8.88;2.90;;;11.10;99.90;;;;;;5082754;28;20036;-81
2021/10/04 01:41:24;;;;;;;7.35;3.30;;;11.10;99.90;;;;;;5079032;28;20048;-81
2021/10/04 01:43:51;;;;;;;7.95;2.92;;;11.40;99.90;;;;;;5070876;28;20035;-82
2021/10/04 01:46:18;;;;;;;9.35;2.85;;;11.10;99.90;;;;;;5082529;28;20492;-82
2021/10/04 01:48:45;;;;;;;13.85;3.05;;;11.10;99.90;;;;;;5061794;28;20036;-82
2021/10/04 01:51:11;;;;;;;11.52;2.85;;;11.60;99.90;;;;;;5083312;28;20039;-81
2021/10/04 01:53:37;;;;;;;8.05;2.60;;;11.10;99.90;;;;;;5087061;28;20031;-81
2021/10/04 01:56:03;;;;;;;7.15;2.55;;;11.10;99.90;;;;;;5083949;28;20119;-82
2021/10/04 01:58:30;;;;;;;10.38;2.85;;;11.10;99.90;;;;;;5082260;28;20073;-81
2021/10/04 02:01:00;;;;;;;6.95;2.60;;;11.10;99.90;;;;;;5100805;28;20467;-81
2021/10/04 02:03:26;;;;;;;10.00;2.65;;;11.10;99.90;;;;;;5066066;28;20032;-82
2021/10/04 02:05:51;;;;;;;14.50;3.25;;;11.20;99.90;;;;;;5083675;28;20050;-81
2021/10/04 02:08:17;;;;;;;11.57;2.88;;;11.90;99.90;;;;;;5101903;28;20032;-81
2021/10/04 02:10:43;;;;;;;13.15;2.80;;;11.10;99.90;;;;;;5083938;28;20234;-81
2021/10/04 02:13:11;;;;;;;10.15;3.00;;;11.10;99.90;;;;;;5085194;28;20067;-81
2021/10/04 02:15:39;;;;;;;7.68;2.40;;;11.60;99.90;;;;;;5061927;28;20043;-81
2021/10/04 02:18:06;;;;;;;15.25;3.03;;;11.30;99.90;;;;;;5092114;28;20075;-81
2021/10/04 02:20:34;;;;;;;10.13;3.08;;;11.20;99.90;;;;;;5095537;28;20028;-81
2021/10/04 02:23:05;;;;;;;11.98;2.85;;;11.20;99.90;;;;;;5089435;28;20066;-82
2021/10/04 02:25:53;;;;;;;6.05;2.55;;;11.00;99.90;;;;;;5065148;28;20052;-82
2021/10/04 02:28:19;;;;;;;6.55;2.72;;;11.00;99.90;;;;;;5063722;28;20039;-81
2021/10/04 02:30:46;;;;;;;6.75;2.85;;;11.30;99.90;;;;;;5067630;28;20073;-82
2021/10/04 02:33:12;;;;;;;13.68;3.28;;;10.90;99.90;;;;;;5081382;28;20032;-81
2021/10/04 02:35:39;;;;;;;7.72;2.88;;;10.90;99.90;;;;;;5103535;28;20050;-81
2021/10/04 02:38:05;;;;;;;9.18;2.75;;;10.90;99.90;;;;;;5065074;28;20044;-81
2021/10/04 02:40:32;;;;;;;12.77;3.28;;;10.90;99.90;;;;;;5064789;28;20044;-81
2021/10/04 02:42:58;;;;;;;9.32;3.20;;;11.20;99.90;;;;;;5056286;28;20044;-82
2021/10/04 02:45:25;;;;;;;11.63;3.15;;;11.40;99.90;;;;;;5059564;28;20071;-81
2021/10/04 02:47:53;;;;;;;11.85;3.10;;;11.00;99.90;;;;;;5064197;28;20036;-81
2021/10/04 02:50:24;;;;;;;11.23;2.90;;;11.00;99.90;;;;;;5075805;28;20036;-82
2021/10/04 02:52:50;;;;;;;10.13;2.80;;;10.90;99.90;;;;;;5065853;28;20062;-81
2021/10/04 02:55:16;;;;;;;10.40;2.78;;;11.00;99.90;;;;;;5075967;28;20056;-81
2021/10/04 02:57:42;;;;;;;8.88;2.45;;;11.10;99.90;;;;;;5074150;28;20083;-81
2021/10/04 03:00:12;;;;;;;8.98;2.90;;;11.00;99.90;;;;;;5077372;28;20036;-82
2021/10/04 03:02:37;;;;;;;8.38;3.03;;;10.90;99.90;;;;;;5076944;28;20079;-81
2021/10/04 03:05:04;;;;;;;8.40;2.85;;;11.10;99.90;;;;;;5056785;28;20068;-82
2021/10/04 03:07:29;;;;;;;8.68;2.60;;;10.90;99.90;;;;;;5077873;28;20470;-81
2021/10/04 03:09:55;;;;;;;7.32;2.20;;;11.00;99.90;;;;;;5062643;28;20048;-82
2021/10/04 03:12:21;;;;;;;6.25;2.70;;;10.80;99.90;;;;;;5057276;28;20032;-81
2021/10/04 03:14:47;;;;;;;9.35;2.88;;;10.90;99.90;;;;;;5076753;28;21836;-81
2021/10/04 03:17:13;;;;;;;5.95;2.35;;;10.90;99.90;;;;;;5080407;28;20051;-81
2021/10/04 03:19:39;;;;;;;6.38;2.65;;;10.90;99.90;;;;;;5076395;28;20036;-81
2021/10/04 03:22:05;;;;;;;13.80;2.92;;;10.90;99.90;;;;;;5062275;28;20051;-82
2021/10/04 03:24:31;;;;;;;12.27;2.75;;;10.80;99.90;;;;;;5079784;28;20373;-81
2021/10/04 03:26:57;;;;;;;7.43;2.42;;;10.90;99.90;;;;;;5062245;28;20055;-81
2021/10/04 03:29:23;;;;;;;8.65;2.80;;;10.80;99.90;;;;;;5056839;28;20037;-81
2021/10/04 03:31:49;;;;;;;7.47;2.50;;;11.30;99.90;;;;;;5062136;28;20104;-82
2021/10/04 03:34:15;;;;;;;8.65;2.47;;;10.70;99.90;;;;;;5080567;28;20078;-82
2021/10/04 03:36:40;;;;;;;10.82;2.47;;;10.80;99.90;;;;;;5087534;28;20035;-81
2021/10/04 03:39:06;;;;;;;7.03;2.30;;;10.80;99.90;;;;;;5062364;28;20036;-81
2021/10/04 03:41:33;;;;;;;5.80;2.15;;;10.90;99.90;;;;;;5098601;28;20035;-81
2021/10/04 03:43:59;;;;;;;8.00;2.20;;;11.30;99.90;;;;;;5102420;28;20111;-82
2021/10/04 03:46:26;;;;;;;8.95;2.15;;;10.80;99.90;;;;;;5061844;28;20478;-82
2021/10/04 03:48:52;;;;;;;11.38;2.35;;;11.30;99.90;;;;;;5093736;28;20062;-81
2021/10/04 03:51:18;;;;;;;9.23;2.50;;;10.70;99.90;;;;;;5090709;27;20075;-81
2021/10/04 03:53:43;;;;;;;12.98;2.47;;;10.90;99.90;;;;;;5098583;28;20047;-82
2021/10/04 03:56:09;;;;;;;8.10;2.15;;;10.90;99.90;;;;;;5083254;28;20040;-81
2021/10/04 03:58:35;;;;;;;10.98;2.10;;;10.90;99.90;;;;;;5065831;28;20077;-82
2021/10/04 04:01:01;;;;;;;7.35;2.50;;;10.90;99.90;;;;;;5095176;28;20044;-81
2021/10/04 04:03:27;;;;;;;12.40;2.53;;;10.80;99.90;;;;;;5080940;28;20040;-81
2021/10/04 04:05:53;;;;;;;15.95;2.75;;;10.80;99.90;;;;;;5063705;28;20042;-82
2021/10/04 04:08:19;;;;;;;10.52;2.55;;;10.80;99.90;;;;;;5080904;28;20039;-81
2021/10/04 04:10:44;;;;;;;7.72;2.10;;;11.20;99.90;;;;;;5067092;28;20826;-81
2021/10/04 04:13:10;;;;;;;12.68;2.60;;;11.10;99.90;;;;;;5096643;28;20036;-82
2021/10/04 04:15:36;;;;;;;7.20;2.42;;;11.50;99.90;;;;;;5065530;28;20449;-81
2021/10/04 04:18:02;;;;;;;4.07;1.77;;;10.90;99.90;;;;;;5094246;28;20037;-81
2021/10/04 04:20:29;;;;;;;7.50;1.90;;;11.40;99.90;;;;;;5079378;28;20127;-80
2021/10/04 04:22:55;;;;;;;4.80;1.90;;;10.80;99.90;;;;;;5097197;28;20078;-81
2021/10/04 04:25:21;;;;;;;6.28;2.42;;;11.20;99.90;;;;;;5084765;28;20400;-81
2021/10/04 04:27:46;;;;;;;10.80;2.42;;;11.00;99.90;;;;;;5076287;28;20096;-82
2021/10/04 04:30:14;;;;;;;8.15;2.05;;;10.80;99.90;;;;;;5099726;28;20040;-82
2021/10/04 04:32:41;;;;;;;4.13;1.95;;;10.80;99.90;;;;;;5063857;28;20043;-81
2021/10/04 04:35:07;;;;;;;11.20;2.28;;;10.70;99.90;;;;;;5079509;28;20097;-81
2021/10/04 04:37:35;;;;;;;5.70;2.00;;;10.80;99.90;;;;;;5059178;28;20040;-81
2021/10/04 04:40:03;;;;;;;9.52;2.40;;;10.90;99.90;;;;;;5056682;28;20048;-80
2021/10/04 04:42:29;;;;;;;10.90;2.40;;;10.70;99.90;;;;;;5073171;28;20043;-82
2021/10/04 04:44:54;;;;;;;5.05;1.75;;;10.70;99.90;;;;;;5073545;28;20040;-80
2021/10/04 04:47:20;;;;;;;5.10;1.95;;;10.90;99.90;;;;;;5074721;28;20119;-81
2021/10/04 04:49:46;;;;;;;7.93;1.80;;;10.90;99.90;;;;;;5075421;28;20098;-81
2021/10/04 04:52:11;;;;;;;8.98;2.10;;;10.90;99.90;;;;;;5079281;28;20436;-82
2021/10/04 04:54:37;;;;;;;7.28;2.03;;;11.10;99.90;;;;;;5061306;28;20383;-81
2021/10/04 04:57:03;;;;;;;5.65;2.22;;;11.20;99.90;;;;;;5077789;28;20499;-82
2021/10/04 04:59:29;;;;;;;8.88;2.08;;;11.00;99.90;;;;;;5080904;28;20043;-81
2021/10/04 05:01:55;;;;;;;8.55;2.20;;;10.80;99.90;;;;;;5081717;28;20078;-82
2021/10/04 05:04:22;;;;;;;9.80;2.25;;;10.80;99.90;;;;;;5083736;28;20089;-81
2021/10/04 05:06:47;;;;;;;8.73;1.90;;;10.80;99.90;;;;;;5063076;28;20032;-81
2021/10/04 05:09:13;;;;;;;6.95;2.17;;;10.80;99.90;;;;;;5087502;28;20048;-81
2021/10/04 05:11:39;;;;;;;6.65;2.08;;;11.00;99.90;;;;;;5067033;28;20043;-81
2021/10/04 05:14:05;;;;;;;6.70;2.08;;;10.80;99.90;;;;;;5069652;28;20039;-81
2021/10/04 05:16:31;;;;;;;9.07;1.85;;;10.80;99.90;;;;;;5067163;28;20059;-81
2021/10/04 05:18:57;;;;;;;6.47;2.35;;;10.80;99.90;;;;;;5084943;28;20040;-81
2021/10/04 05:21:23;;;;;;;10.48;2.15;;;10.80;99.90;;;;;;5078915;28;20048;-81
2021/10/04 05:23:49;;;;;;;6.38;2.20;;;10.90;99.90;;;;;;5062285;28;20072;-82
2021/10/04 05:26:15;;;;;;;12.73;2.10;;;10.80;99.90;;;;;;5081298;28;20136;-81
2021/10/04 05:28:40;;;;;;;7.45;2.00;;;10.80;99.90;;;;;;5077324;28;20071;-81
2021/10/04 05:31:06;;;;;;;8.93;2.03;;;10.80;99.90;;;;;;5081602;28;20480;-80
2021/10/04 05:33:33;;;;;;;9.35;2.30;;;10.90;99.90;;;;;;5078866;28;20048;-76
2021/10/04 05:35:59;;;;;;;8.07;2.13;;;10.70;99.90;;;;;;5065939;28;20556;-79
2021/10/04 05:38:25;;;;;;;3.72;2.00;;;10.80;99.90;;;;;;5083358;28;20032;-80
2021/10/04 05:40:51;;;;;;;6.40;1.98;;;10.80;99.90;;;;;;5058752;28;20488;-82
2021/10/04 05:43:16;;;;;;;8.75;2.05;;;10.80;99.90;;;;;;5061260;28;20041;-81
2021/10/04 05:45:42;;;;;;;8.65;2.15;;;10.80;99.90;;;;;;5062400;28;20036;-80
2021/10/04 05:48:08;;;;;;;9.27;2.25;;;10.80;99.90;;;;;;5079263;28;20399;-79
2021/10/04 05:50:34;;;;;;;8.45;2.05;;;10.80;99.90;;;;;;5083277;28;20048;-79
2021/10/04 05:53:00;;;;;;;6.30;2.10;;;11.20;99.90;;;;;;5074935;28;20051;-77
2021/10/04 05:55:26;;;;;;;7.70;2.30;;;10.90;99.90;;;;;;5079076;28;20414;-80
2021/10/04 05:57:51;;;;;;;6.65;2.00;;;10.80;99.90;;;;;;5085549;28;20040;-81
2021/10/04 06:00:17;;;;;;;5.57;1.90;;;10.90;99.90;;;;;;5075075;28;20106;-81
2021/10/04 06:02:43;;;;;;;9.82;2.30;;;10.80;99.90;;;;;;5075686;28;20078;-81
2021/10/04 06:05:10;;;;;;;6.10;2.05;;;10.90;99.90;;;;;;5080677;28;20032;-80
2021/10/04 06:07:36;;;;;;;7.07;2.30;;;10.90;99.90;;;;;;5077320;28;20038;-82
2021/10/04 06:10:03;;;;;;;7.40;1.92;;;10.90;99.90;;;;;;5066203;28;20098;-81
2021/10/04 06:12:29;;;;;;;8.15;2.13;;;10.90;99.90;;;;;;5084958;28;20050;-81
2021/10/04 06:14:56;;;;;;;10.48;2.20;;;10.90;99.90;;;;;;5086034;28;20387;-82
2021/10/04 06:17:22;;;;;;;8.85;1.85;;;11.10;99.90;;;;;;5077644;28;20525;-82
2021/10/04 06:19:48;;;;;;;8.48;2.17;;;11.00;99.90;;;;;;5080460;28;20040;-81
2021/10/04 06:22:15;;;;;;;9.52;2.17;;;11.00;99.90;;;;;;5075743;28;20101;-82
2021/10/04 06:24:41;;;;;;;17.17;2.33;;;11.00;99.90;;;;;;5068247;28;20029;-81
2021/10/04 06:27:11;;;;;;;8.82;2.10;;;11.00;99.90;;;;;;5081792;28;20448;-81
2021/10/04 06:29:37;;;;;;;6.20;1.85;;;11.10;99.90;;;;;;5081592;28;20112;-82
2021/10/04 06:32:07;;;;;;;11.93;2.70;;;11.10;99.90;;;;;;5075517;28;20044;-83
2021/10/04 06:34:34;;;;;;;6.78;2.30;;;11.50;99.90;;;;;;5078588;28;20132;-82
2021/10/04 06:37:00;;;;;;;9.43;2.00;;;11.10;99.90;;;;;;5060067;28;20448;-83
2021/10/04 06:39:26;;;;;;;10.80;1.90;;;11.40;99.90;;;;;;5062507;28;20052;-82
2021/10/04 06:41:52;;;;;;;6.90;2.00;;;11.20;99.90;;;;;;5059556;28;20048;-81
2021/10/04 06:44:18;;;;;;;10.10;2.28;;;11.20;99.90;;;;;;5080498;28;20040;-80
2021/10/04 06:46:44;;;;;;;5.93;2.03;;;11.20;99.90;;;;;;5081099;28;20032;-80
2021/10/04 06:49:10;;;;;;;8.68;2.20;;;11.30;99.90;;;;;;5062530;28;20505;-81
2021/10/04 06:51:36;;;;;;;8.57;2.33;;;11.30;99.90;;;;;;5055888;28;20068;-82
2021/10/04 06:54:02;;;;;;;7.50;1.90;;;11.30;99.90;;;;;;5059183;28;20127;-82
2021/10/04 06:56:27;;;;;;;8.63;2.17;;;11.40;99.90;;;;;;5077752;28;20098;-82
2021/10/04 06:58:53;;;;;;;8.55;2.28;;;11.40;99.90;;;;;;5082186;28;20359;-82
2021/10/04 07:01:19;;;;;;;5.25;1.77;;;11.40;99.90;;;;;;5057728;28;20048;-82
2021/10/04 07:03:45;;;;;;;6.88;1.70;;;11.40;99.90;;;;;;5070550;28;20133;-82
2021/10/04 07:06:10;;;;;;;6.30;2.10;;;11.70;99.90;;;;;;5084071;28;20051;-82
2021/10/04 07:08:36;;;;;;;6.65;1.80;;;11.70;99.90;;;;;;5074547;28;20059;-82
2021/10/04 07:11:03;;;;;;;5.95;1.63;;;11.50;99.90;;;;;;5083909;28;20047;-82
2021/10/04 07:13:29;;;;;;;7.55;1.80;;;11.50;99.90;;;;;;5070642;28;20050;-82
2021/10/04 07:15:54;;;;;;;9.43;1.80;;;11.50;99.90;;;;;;5076889;28;20043;-82
2021/10/04 07:18:20;;;;;;;6.65;1.70;;;11.60;99.90;;;;;;5072059;28;20056;-81
2021/10/04 07:20:46;;;;;;;5.85;1.90;;;11.50;99.90;;;;;;5068615;28;20436;-82
2021/10/04 07:23:13;;;;;;;7.97;1.90;;;11.90;99.90;;;;;;5084970;28;20048;-82
2021/10/04 07:25:38;;;;;;;7.65;1.73;;;12.10;99.90;;;;;;5090257;28;20105;-81
2021/10/04 07:28:05;;;;;;;6.00;1.73;;;11.50;99.90;;;;;;5059038;28;20044;-81
2021/10/04 07:30:33;;;;;;;8.90;1.73;;;11.50;99.90;;;;;;5071865;28;20128;-82
2021/10/04 07:33:00;;;;;;;9.75;1.80;;;11.50;99.90;;;;;;5073059;28;20040;-81
2021/10/04 07:35:27;;;;;;;7.30;1.98;;;11.60;99.90;;;;;;5073955;28;20458;-82
2021/10/04 07:37:52;;;;;;;4.32;1.48;;;11.60;99.90;;;;;;5049432;28;20067;-83
2021/10/04 07:40:19;;;;;;;10.52;1.85;;;11.70;99.90;;;;;;5074675;28;20463;-82
2021/10/04 07:42:45;;;;;;;10.90;1.83;;;11.70;99.90;;;;;;5078483;28;20029;-83
2021/10/04 07:45:11;;;;;;;12.98;1.90;;;11.80;99.90;;;;;;5084789;28;20043;-82
2021/10/04 07:47:38;;;;;;;7.07;1.80;;;11.70;99.90;;;;;;5061883;28;20045;-84
2021/10/04 07:50:06;;;;;;;7.45;2.00;;;11.80;99.90;;;;;;5080534;28;20044;-82
2021/10/04 07:52:32;;;;;;;8.25;1.75;;;11.80;99.90;;;;;;5088332;28;20032;-82
2021/10/04 07:54:59;;;;;;;7.40;1.92;;;11.70;99.90;;;;;;5082851;28;20116;-83
2021/10/04 07:57:25;;;;;;;11.40;2.25;;;11.70;99.90;;;;;;5090154;28;20124;-83
2021/10/04 07:59:51;;;;;;;11.85;1.73;;;11.70;99.90;;;;;;5062928;28;20387;-82
2021/10/04 08:02:17;;;;;;;8.50;1.95;;;11.70;99.90;;;;;;5068800;28;20101;-82
2021/10/04 08:04:44;;;;;;;11.07;1.80;;;11.70;99.90;;;;;;5070641;28;20047;-83
2021/10/04 08:07:09;;;;;;;9.50;1.90;;;11.70;99.90;;;;;;5066624;28;20479;-80
2021/10/04 08:09:35;;;;;;;9.75;1.80;;;11.50;99.90;;;;;;5073498;28;20115;-79
2021/10/04 08:12:01;;;;;;;16.92;2.35;;;12.00;99.90;;;;;;5072602;28;20044;-82
2021/10/04 08:14:27;;;;;;;8.40;2.08;;;11.70;99.90;;;;;;5080949;28;20048;-83
2021/10/04 08:16:53;;;;;;;9.00;2.30;;;11.70;99.90;;;;;;5078089;28;20056;-82
2021/10/04 08:19:19;;;;;;;10.90;2.08;;;12.10;99.90;;;;;;5058524;28;20048;-81
2021/10/04 08:21:45;;;;;;;4.35;1.80;;;11.80;99.90;;;;;;5052947;28;20052;-79
2021/10/04 08:24:11;;;;;;;7.15;1.90;;;11.80;99.90;;;;;;5059177;28;20068;-81
2021/10/04 08:26:36;;;;;;;5.32;2.08;;;11.80;99.90;;;;;;5079142;28;20055;-81
2021/10/04 08:29:02;;;;;;;5.78;1.88;;;12.00;99.90;;;;;;5075481;28;20072;-82
2021/10/04 08:31:32;;;;;;;9.05;2.60;;;11.80;99.90;;;;;;5076705;28;20145;-82
2021/10/04 08:34:01;;;;;;;7.55;2.08;;;11.90;99.90;;;;;;5053514;28;20056;-79
2021/10/04 08:36:30;;;;;;;11.52;2.75;;;11.80;99.90;;;;;;5060537;28;20109;-79
2021/10/04 08:38:56;;;;;;;5.20;2.00;;;11.90;99.90;;;;;;5077618;28;20476;-79
2021/10/04 08:41:26;;;;;;;4.13;1.88;;;11.90;99.90;;;;;;5057721;28;20047;-78
2021/10/04 08:43:54;;;;;;;7.93;1.95;;;11.90;99.90;;;;;;5053804;28;20041;-78
2021/10/04 08:46:21;;;;;;;8.32;2.13;;;12.00;99.90;;;;;;5072792;28;20128;-80
2021/10/04 08:48:50;;;;;;;6.53;2.05;;;12.00;99.90;;;;;;5080830;28;20044;-78
2021/10/04 08:51:16;;;;;;;10.75;2.22;;;12.10;99.90;;;;;;5084386;28;20517;-79
2021/10/04 08:53:42;;;;;;;8.18;2.10;;;12.10;99.90;;;;;;5086054;28;20382;-82
2021/10/04 08:56:09;;;;;;;4.80;1.73;;;12.20;99.90;;;;;;5072409;28;20056;-82
2021/10/04 08:58:35;;;;;;;8.75;2.10;;;12.30;99.90;;;;;;5052364;28;20040;-82
2021/10/04 09:01:03;;;;;;;6.93;1.85;;;12.40;99.90;;;;;;5051826;28;20064;-81
2021/10/04 09:03:43;;;;;;;8.77;2.30;;;12.40;99.90;;;;;;5085977;28;20052;-81
2021/10/04 09:06:22;;;;;;;7.10;2.28;;;12.50;99.90;;;;;;5070353;28;20080;-82
2021/10/04 09:08:56;;;;;;;9.10;1.98;;;12.60;99.90;;;;;;5088994;28;20047;-80
2021/10/04 09:11:40;;;;;;;14.00;2.50;;;12.70;99.90;;;;;;5088058;28;20531;-80
2021/10/04 09:14:18;;;;;;;9.38;2.05;;;12.70;99.90;;;;;;5078860;28;20053;-82
2021/10/04 09:16:50;;;;;;;7.45;1.92;;;12.80;99.90;;;;;;5056535;28;20071;-80
2021/10/04 09:19:21;;;;;;;10.90;2.22;;;12.80;99.90;;;;;;5088254;28;20505;-81
2021/10/04 09:22:05;;;;;;;13.75;2.28;;;13.00;99.90;;;;;;5067826;28;20063;-82
2021/10/04 09:24:31;;;;;;;6.80;1.80;;;13.00;99.90;;;;;;5055438;28;20095;-83
2021/10/04 09:26:57;;;;;;;8.05;2.20;;;13.10;99.90;;;;;;5057777;28;20047;-82
2021/10/04 09:29:26;;;;;;;7.97;2.20;;;13.30;99.90;;;;;;5081845;28;20036;-82
2021/10/04 09:31:53;;;;;;;6.22;1.75;;;13.20;99.90;;;;;;5071475;28;20055;-82
2021/10/04 09:34:27;;;;;;;8.70;1.80;;;13.30;99.90;;;;;;5081057;28;20126;-79
2021/10/04 09:36:56;;;;;;;8.77;2.13;;;13.40;99.90;;;;;;5070301;28;20045;-81
2021/10/04 09:39:31;;;;;;;9.35;2.20;;;13.40;99.90;;;;;;5052010;28;20110;-81
2021/10/04 09:42:00;;;;;;;6.68;2.00;;;13.50;99.90;;;;;;5059418;28;20453;-81
2021/10/04 09:44:48;;;;;;;9.90;2.08;;;13.60;99.90;;;;;;5055993;28;20111;-77
2021/10/04 09:47:36;;;;;;;10.77;2.72;;;13.70;99.90;;;;;;5068775;28;20052;-80
2021/10/04 09:50:28;;;;;;;7.28;1.80;;;13.70;99.90;;;;;;5080297;28;20201;-81
2021/10/04 09:52:59;;;;;;;8.43;1.80;;;13.90;99.90;;;;;;5076309;28;20127;-78
2021/10/04 09:55:25;;;;;;;11.07;2.05;;;14.30;99.90;;;;;;5081430;28;20054;-77
2021/10/04 09:58:06;;;;;;;6.20;1.50;;;14.70;99.90;;;;;;5071310;28;20044;-80
2021/10/04 10:00:42;;;;;;;6.65;1.40;;;15.10;99.90;;;;;;5098962;28;20052;-80
2021/10/04 10:03:09;;;;;;;6.50;1.60;;;15.50;99.90;;;;;;5062696;28;20088;-79
2021/10/04 10:05:38;;;;;;;5.40;1.50;;;15.70;99.90;;;;;;5079468;28;20048;-80
2021/10/04 10:08:04;;;;;;;8.55;1.73;;;16.00;99.90;;;;;;5081859;28;20036;-81
2021/10/04 10:10:30;;;;;;;8.48;1.90;;;16.20;99.90;;;;;;5078236;28;20075;-81
2021/10/04 10:12:58;;;;;;;8.82;1.60;;;16.20;99.90;;;;;;5079362;28;20044;-78
2021/10/04 10:15:27;;;;;;;7.13;1.95;;;16.40;99.90;;;;;;5064209;28;20052;-79
2021/10/04 10:18:05;;;;;;;9.93;1.65;;;16.50;99.90;;;;;;5068572;28;20052;-79
2021/10/04 10:20:32;;;;;;;11.25;1.55;;;16.70;99.90;;;;;;5076245;28;20048;-78
2021/10/04 10:22:58;;;;;;;7.50;1.45;;;16.80;99.90;;;;;;5070606;28;20054;-77
2021/10/04 10:25:26;;;;;;;7.65;1.70;;;16.80;99.90;;;;;;5056992;28;20045;-76
2021/10/04 10:27:52;;;;;;;12.48;1.92;;;16.80;99.90;;;;;;5081545;28;20456;-80
2021/10/04 10:30:23;;;;;;;9.18;1.55;;;16.90;99.90;;;;;;5077246;28;20236;-80
2021/10/04 10:32:54;;;;;;;7.43;1.52;;;17.20;99.90;;;;;;5079063;28;20040;-79
2021/10/04 10:35:44;;;;;;;5.95;1.50;;;17.30;99.90;;;;;;5078954;28;20055;-75
2021/10/04 10:38:10;;;;;;;10.00;1.88;;;17.50;99.90;;;;;;5063015;28;20059;-80
2021/10/04 10:40:36;;;;;;;11.63;2.17;;;17.40;99.90;;;;;;5055895;28;20051;-80
2021/10/04 10:43:09;;;;;;;11.23;2.38;;;17.70;99.90;;;;;;5079372;28;20074;-79
2021/10/04 10:45:43;;;;;;;9.77;2.05;;;17.70;99.90;;;;;;5056521;28;20036;-80
2021/10/04 10:48:10;;;;;;;9.40;1.80;;;17.90;99.90;;;;;;5076744;28;20056;-77
2021/10/04 10:50:42;;;;;;;10.02;2.05;;;18.00;99.90;;;;;;5076087;28;20048;-77
2021/10/04 10:53:10;;;;;;;13.15;1.92;;;18.10;99.90;;;;;;5076953;28;20071;-78
2021/10/04 10:55:43;;;;;;;11.95;1.70;;;17.90;99.90;;;;;;5066913;28;20143;-80
2021/10/04 10:58:13;;;;;;;6.47;1.42;;;18.00;99.90;;;;;;5079774;28;20048;-80
2021/10/04 11:00:59;;;;;;;10.73;1.88;;;18.10;99.90;;;;;;5082678;28;20407;-78
2021/10/04 11:03:26;;;;;;;7.88;1.65;;;18.20;99.90;;;;;;5080957;28;20087;-80
2021/10/04 11:05:57;;;;;;;9.00;2.10;;;18.30;99.90;;;;;;5074446;28;20834;-75
2021/10/04 11:08:29;;;;;;;10.45;1.60;;;18.20;99.90;;;;;;5080679;28;20127;-80
2021/10/04 11:10:58;;;;;;;7.43;1.40;;;18.10;99.90;;;;;;5066585;28;20052;-81
2021/10/04 11:13:30;;;;;;;7.15;1.50;;;18.10;99.90;;;;;;5069454;28;20082;-82
2021/10/04 11:16:23;;;;;;;7.68;1.48;;;18.00;99.90;;;;;;5079312;28;20044;-80
2021/10/04 11:18:52;;;;;;;4.70;1.20;;;18.00;99.90;;;;;;5063238;28;20048;-84
2021/10/04 11:21:20;;;;;;;11.70;1.90;;;17.90;99.90;;;;;;5075890;28;20055;-82
2021/10/04 11:23:50;;;;;;;7.20;1.40;;;18.10;99.90;;;;;;5070554;28;20062;-81
2021/10/04 11:26:22;;;;;;;5.80;1.50;;;18.10;99.90;;;;;;5054614;28;20160;-82
2021/10/04 11:28:52;;;;;;;7.85;1.33;;;18.10;99.90;;;;;;5074666;28;20075;-81
2021/10/04 11:31:24;;;;;;;7.82;1.63;;;18.10;99.90;;;;;;5073912;28;20113;-84
2021/10/04 11:33:58;;;;;;;10.00;1.40;;;18.00;99.90;;;;;;5054085;28;20190;-81
2021/10/04 11:36:33;;;;;;;7.97;1.33;;;18.10;99.90;;;;;;5072666;28;20110;-81
2021/10/04 11:39:02;;;;;;;8.10;1.45;;;18.30;99.90;;;;;;5082156;28;20044;-82
2021/10/04 11:41:49;;;;;;;9.30;1.42;;;18.40;99.90;;;;;;5062027;28;20044;-82
2021/10/04 11:44:21;;;;;;;5.25;1.27;;;18.30;99.90;;;;;;5073479;28;20043;-83
2021/10/04 11:46:52;;;;;;;7.75;1.52;;;18.30;99.90;;;;;;5077806;28;20050;-84
2021/10/04 11:49:21;;;;;;;7.65;1.35;;;18.60;99.90;;;;;;5090332;28;20506;-82
2021/10/04 11:51:50;;;;;;;7.28;1.50;;;18.60;99.90;;;;;;5077075;28;20376;-81
2021/10/04 11:54:39;;;;;;;5.07;1.13;;;18.60;99.90;;;;;;5083454;28;20036;-82
2021/10/04 11:57:07;;;;;;;7.40;1.10;;;18.90;99.90;;;;;;5084728;28;20047;-82
2021/10/04 11:59:57;;;;;;;4.00;1.27;;;18.80;99.90;;;;;;5085756;28;20121;-80
2021/10/04 12:02:26;;;;;;;7.93;1.25;;;19.00;99.90;;;;;;5058208;28;20045;-82
2021/10/04 12:05:06;;;;;;;5.55;1.30;;;19.00;99.90;;;;;;5081704;28;20347;-81
2021/10/04 12:07:32;;;;;;;6.43;1.42;;;19.00;99.90;;;;;;5072170;28;20405;-82
2021/10/04 12:09:58;;;;;;;8.32;1.17;;;18.80;99.90;;;;;;5059145;28;20052;-83
2021/10/04 12:12:33;;;;;;;5.72;1.33;;;18.80;99.90;;;;;;5069863;28;20071;-83
2021/10/04 12:14:59;;;;;;;10.57;1.65;;;18.80;99.90;;;;;;5053872;28;20057;-82
2021/10/04 12:17:25;;;;;;;6.75;1.30;;;18.90;99.90;;;;;;5081334;28;20046;-83
2021/10/04 12:19:50;;;;;;;6.13;1.20;;;19.00;99.90;;;;;;5087366;28;20047;-83
2021/10/04 12:22:34;;;;;;;6.95;1.20;;;19.20;99.90;;;;;;5084289;28;20047;-82
2021/10/04 12:25:00;;;;;;;4.70;1.10;;;19.30;99.90;;;;;;5062595;28;20047;-82
2021/10/04 12:27:26;;;;;;;6.70;1.13;;;19.30;99.90;;;;;;5081109;28;20036;-83
2021/10/04 12:30:00;;;;;;;8.95;1.40;;;19.50;99.90;;;;;;5058094;28;20218;-83
2021/10/04 12:32:37;;;;;;;7.10;1.13;;;19.60;99.90;;;;;;5075598;28;20389;-85
2021/10/04 12:35:14;;;;;;;6.50;1.33;;;19.80;99.90;;;;;;5074707;28;20433;-84
2021/10/04 12:37:45;;;;;;;8.93;1.25;;;19.90;99.90;;;;;;5074453;28;20062;-84
2021/10/04 12:40:18;;;;;;;8.13;1.20;;;19.90;99.90;;;;;;5056619;28;20495;-82
2021/10/04 12:42:44;;;;;;;3.75;0.88;;;19.90;99.90;;;;;;5073860;28;20036;-82
2021/10/04 12:45:15;;;;;;;7.15;1.40;;;20.20;99.90;;;;;;5054070;28;20574;-82
2021/10/04 12:48:13;;;;;;;4.00;1.10;;;20.10;99.90;;;;;;5075317;28;20044;-83